sensor_id;sensor_type;location;lat;lon;timestamp;temperature;humidity
2611;DHT22;5612;51.134;17.058;2023-05-14T00:00:55;10.90;1.00
2611;DHT22;5612;51.134;17.058;2023-05-14T00:03:24;10.90;1.00
2611;DHT22;5612;51.134;17.058;2023-05-14T00:05:53;10.80;99.90
2611;DHT22;5612;51.134;17.058;2023-05-14T00:08:23;10.80;99.90
2611;DHT22;5612;51.134;17.058;2023-05-14T00:10:52;10.80;99.90
2611;DHT22;5612;51.134;17.058;2023-05-14T00:13:20;10.70;99.90
2611;DHT22;5612;51.134;17.058;2023-05-14T00:15:49;10.60;1.00
2611;DHT22;5612;51.134;17.058;2023-05-14T00:18:18;10.70;1.00
2611;DHT22;5612;51.134;17.058;2023-05-14T00:20:47;10.70;1.00
2611;DHT22;5612;51.134;17.058;2023-05-14T00:23:22;10.70;1.00
2611;DHT22;5612;51.134;17.058;2023-05-14T00:25:51;10.70;1.00
2611;DHT22;5612;51.134;17.058;2023-05-14T00:28:20;10.70;1.00
2611;DHT22;5612;51.134;17.058;2023-05-14T00:30:49;10.70;1.00
2611;DHT22;5612;51.134;17.058;2023-05-14T00:33:18;10.70;1.00
2611;DHT22;5612;51.134;17.058;2023-05-14T00:35:47;10.70;1.00
2611;DHT22;5612;51.134;17.058;2023-05-14T00:38:16;10.70;1.00
2611;DHT22;5612;51.134;17.058;2023-05-14T00:40:47;10.80;1.00
2611;DHT22;5612;51.134;17.058;2023-05-14T00:43:18;10.90;1.00
2611;DHT22;5612;51.134;17.058;2023-05-14T00:45:47;11.00;1.00
2611;DHT22;5612;51.134;17.058;2023-05-14T00:48:17;11.00;1.00
2611;DHT22;5612;51.134;17.058;2023-05-14T00:50:48;11.10;1.00
2611;DHT22;5612;51.134;17.058;2023-05-14T00:53:18;11.20;99.90
2611;DHT22;5612;51.134;17.058;2023-05-14T00:55:49;11.20;99.90
2611;DHT22;5612;51.134;17.058;2023-05-14T00:58:18;11.30;99.90
2611;DHT22;5612;51.134;17.058;2023-05-14T01:00:47;11.40;99.90
2611;DHT22;5612;51.134;17.058;2023-05-14T01:03:16;11.40;99.90
2611;DHT22;5612;51.134;17.058;2023-05-14T01:05:52;11.50;99.90
2611;DHT22;5612;51.134;17.058;2023-05-14T01:08:31;11.50;1.00
2611;DHT22;5612;51.134;17.058;2023-05-14T01:11:08;11.60;1.00
2611;DHT22;5612;51.134;17.058;2023-05-14T01:13:49;11.60;99.90
2611;DHT22;5612;51.134;17.058;2023-05-14T01:16:19;11.70;99.90
2611;DHT22;5612;51.134;17.058;2023-05-14T01:18:49;11.70;99.90
2611;DHT22;5612;51.134;17.058;2023-05-14T01:21:35;11.70;99.90
2611;DHT22;5612;51.134;17.058;2023-05-14T01:24:04;11.80;99.90
2611;DHT22;5612;51.134;17.058;2023-05-14T01:26:33;11.80;99.90
2611;DHT22;5612;51.134;17.058;2023-05-14T01:29:09;11.80;99.90
2611;DHT22;5612;51.134;17.058;2023-05-14T01:31:43;11.80;99.90
2611;DHT22;5612;51.134;17.058;2023-05-14T01:34:13;11.80;99.90
2611;DHT22;5612;51.134;17.058;2023-05-14T01:36:44;11.80;99.90
2611;DHT22;5612;51.134;17.058;2023-05-14T01:39:14;11.80;99.90
2611;DHT22;5612;51.134;17.058;2023-05-14T01:41:44;11.80;99.90
2611;DHT22;5612;51.134;17.058;2023-05-14T01:44:13;11.80;99.90
2611;DHT22;5612;51.134;17.058;2023-05-14T01:46:42;11.90;99.90
2611;DHT22;5612;51.134;17.058;2023-05-14T01:49:11;11.80;99.90
2611;DHT22;5612;51.134;17.058;2023-05-14T01:51:39;11.70;99.90
2611;DHT22;5612;51.134;17.058;2023-05-14T01:54:09;11.60;99.90
2611;DHT22;5612;51.134;17.058;2023-05-14T01:56:38;11.60;99.90
2611;DHT22;5612;51.134;17.058;2023-05-14T01:59:07;11.50;90.00
2611;DHT22;5612;51.134;17.058;2023-05-14T02:01:36;11.40;99.90
2611;DHT22;5612;51.134;17.058;2023-05-14T02:04:04;11.40;99.90
2611;DHT22;5612;51.134;17.058;2023-05-14T02:06:33;11.30;99.90
2611;DHT22;5612;51.134;17.058;2023-05-14T02:09:02;11.30;99.90
2611;DHT22;5612;51.134;17.058;2023-05-14T02:11:33;11.30;99.90
2611;DHT22;5612;51.134;17.058;2023-05-14T02:14:01;11.30;99.90
2611;DHT22;5612;51.134;17.058;2023-05-14T02:16:30;11.20;99.90
2611;DHT22;5612;51.134;17.058;2023-05-14T02:18:59;11.20;99.90
2611;DHT22;5612;51.134;17.058;2023-05-14T02:21:28;11.10;99.90
2611;DHT22;5612;51.134;17.058;2023-05-14T02:23:57;11.10;99.90
2611;DHT22;5612;51.134;17.058;2023-05-14T02:26:25;11.10;99.90
2611;DHT22;5612;51.134;17.058;2023-05-14T02:28:56;11.00;99.90
2611;DHT22;5612;51.134;17.058;2023-05-14T02:31:24;11.00;99.90
2611;DHT22;5612;51.134;17.058;2023-05-14T02:33:53;10.90;99.90
2611;DHT22;5612;51.134;17.058;2023-05-14T02:36:22;10.90;99.90
2611;DHT22;5612;51.134;17.058;2023-05-14T02:38:51;10.90;99.90
2611;DHT22;5612;51.134;17.058;2023-05-14T02:41:19;10.80;99.90
2611;DHT22;5612;51.134;17.058;2023-05-14T02:43:48;10.70;99.90
2611;DHT22;5612;51.134;17.058;2023-05-14T02:46:19;10.60;99.90
2611;DHT22;5612;51.134;17.058;2023-05-14T02:48:47;10.60;99.90
2611;DHT22;5612;51.134;17.058;2023-05-14T02:51:18;10.60;99.90
2611;DHT22;5612;51.134;17.058;2023-05-14T02:53:47;10.60;99.90
2611;DHT22;5612;51.134;17.058;2023-05-14T02:56:15;10.60;99.90
2611;DHT22;5612;51.134;17.058;2023-05-14T02:58:44;10.40;99.90
2611;DHT22;5612;51.134;17.058;2023-05-14T03:01:13;10.50;99.90
2611;DHT22;5612;51.134;17.058;2023-05-14T03:03:43;10.60;99.90
2611;DHT22;5612;51.134;17.058;2023-05-14T03:06:13;10.60;99.90
2611;DHT22;5612;51.134;17.058;2023-05-14T03:08:41;10.70;99.90
2611;DHT22;5612;51.134;17.058;2023-05-14T03:11:10;10.80;99.90
2611;DHT22;5612;51.134;17.058;2023-05-14T03:13:39;10.80;99.90
2611;DHT22;5612;51.134;17.058;2023-05-14T03:16:07;10.80;99.90
2611;DHT22;5612;51.134;17.058;2023-05-14T03:18:36;10.90;99.90
2611;DHT22;5612;51.134;17.058;2023-05-14T03:21:07;10.80;99.90
2611;DHT22;5612;51.134;17.058;2023-05-14T03:23:36;10.80;99.90
2611;DHT22;5612;51.134;17.058;2023-05-14T03:26:04;10.80;99.90
2611;DHT22;5612;51.134;17.058;2023-05-14T03:28:33;10.90;99.90
2611;DHT22;5612;51.134;17.058;2023-05-14T03:31:02;10.90;99.90
2611;DHT22;5612;51.134;17.058;2023-05-14T03:33:31;10.80;99.90
2611;DHT22;5612;51.134;17.058;2023-05-14T03:36:00;10.80;99.90
2611;DHT22;5612;51.134;17.058;2023-05-14T03:38:30;10.80;99.90
2611;DHT22;5612;51.134;17.058;2023-05-14T03:40:58;10.80;99.90
2611;DHT22;5612;51.134;17.058;2023-05-14T03:43:27;10.70;99.90
2611;DHT22;5612;51.134;17.058;2023-05-14T03:45:56;10.70;99.90
2611;DHT22;5612;51.134;17.058;2023-05-14T03:48:24;10.60;99.90
2611;DHT22;5612;51.134;17.058;2023-05-14T03:50:53;10.60;99.90
2611;DHT22;5612;51.134;17.058;2023-05-14T03:53:22;10.60;99.90
2611;DHT22;5612;51.134;17.058;2023-05-14T03:55:52;10.70;99.90
2611;DHT22;5612;51.134;17.058;2023-05-14T03:58:21;10.70;99.90
2611;DHT22;5612;51.134;17.058;2023-05-14T04:00:50;10.70;99.90
2611;DHT22;5612;51.134;17.058;2023-05-14T04:03:19;10.70;99.90
2611;DHT22;5612;51.134;17.058;2023-05-14T04:05:48;10.80;99.90
2611;DHT22;5612;51.134;17.058;2023-05-14T04:08:16;10.90;99.90
2611;DHT22;5612;51.134;17.058;2023-05-14T04:10:45;10.90;99.90
2611;DHT22;5612;51.134;17.058;2023-05-14T04:13:15;11.00;99.90
2611;DHT22;5612;51.134;17.058;2023-05-14T04:15:44;11.00;99.90
2611;DHT22;5612;51.134;17.058;2023-05-14T04:18:12;11.00;99.90
2611;DHT22;5612;51.134;17.058;2023-05-14T04:20:41;11.10;99.90
2611;DHT22;5612;51.134;17.058;2023-05-14T04:23:10;11.20;99.90
2611;DHT22;5612;51.134;17.058;2023-05-14T04:25:38;11.30;99.90
2611;DHT22;5612;51.134;17.058;2023-05-14T04:28:07;11.40;99.90
2611;DHT22;5612;51.134;17.058;2023-05-14T04:30:37;11.50;99.90
2611;DHT22;5612;51.134;17.058;2023-05-14T04:33:06;11.60;99.90
2611;DHT22;5612;51.134;17.058;2023-05-14T04:35:35;11.70;86.50
2611;DHT22;5612;51.134;17.058;2023-05-14T04:38:04;11.80;91.70
2611;DHT22;5612;51.134;17.058;2023-05-14T04:40:33;11.80;39.20
2611;DHT22;5612;51.134;17.058;2023-05-14T04:43:02;11.90;26.60
2611;DHT22;5612;51.134;17.058;2023-05-14T04:45:31;12.10;16.50
2611;DHT22;5612;51.134;17.058;2023-05-14T04:48:02;12.20;14.70
2611;DHT22;5612;51.134;17.058;2023-05-14T04:50:31;12.40;1.00
2611;DHT22;5612;51.134;17.058;2023-05-14T04:52:59;12.50;1.00
2611;DHT22;5612;51.134;17.058;2023-05-14T04:55:29;12.50;1.00
2611;DHT22;5612;51.134;17.058;2023-05-14T04:57:58;12.70;1.00
2611;DHT22;5612;51.134;17.058;2023-05-14T05:00:28;12.80;1.00
2611;DHT22;5612;51.134;17.058;2023-05-14T05:02:56;13.00;1.00
2611;DHT22;5612;51.134;17.058;2023-05-14T05:05:27;13.10;1.00
2611;DHT22;5612;51.134;17.058;2023-05-14T05:07:55;13.20;1.00
2611;DHT22;5612;51.134;17.058;2023-05-14T05:10:24;13.40;1.00
2611;DHT22;5612;51.134;17.058;2023-05-14T05:12:53;13.50;1.00
2611;DHT22;5612;51.134;17.058;2023-05-14T05:15:22;13.50;1.00
2611;DHT22;5612;51.134;17.058;2023-05-14T05:17:52;13.70;1.00
2611;DHT22;5612;51.134;17.058;2023-05-14T05:20:21;13.90;1.00
2611;DHT22;5612;51.134;17.058;2023-05-14T05:22:53;14.20;1.00
2611;DHT22;5612;51.134;17.058;2023-05-14T05:25:21;14.20;1.00
2611;DHT22;5612;51.134;17.058;2023-05-14T05:27:50;14.40;1.00
2611;DHT22;5612;51.134;17.058;2023-05-14T05:30:19;14.50;1.00
2611;DHT22;5612;51.134;17.058;2023-05-14T05:32:48;14.60;1.00
2611;DHT22;5612;51.134;17.058;2023-05-14T05:35:17;14.60;1.00
2611;DHT22;5612;51.134;17.058;2023-05-14T05:37:45;14.80;1.00
2611;DHT22;5612;51.134;17.058;2023-05-14T05:40:16;15.00;1.00
2611;DHT22;5612;51.134;17.058;2023-05-14T05:42:45;15.10;1.00
2611;DHT22;5612;51.134;17.058;2023-05-14T05:45:13;15.00;1.00
2611;DHT22;5612;51.134;17.058;2023-05-14T05:47:42;15.10;1.00
2611;DHT22;5612;51.134;17.058;2023-05-14T05:50:11;15.20;1.00
2611;DHT22;5612;51.134;17.058;2023-05-14T05:52:40;15.20;1.00
2611;DHT22;5612;51.134;17.058;2023-05-14T05:55:09;15.40;1.00
2611;DHT22;5612;51.134;17.058;2023-05-14T05:57:39;15.40;1.00
2611;DHT22;5612;51.134;17.058;2023-05-14T06:00:09;15.40;1.00
2611;DHT22;5612;51.134;17.058;2023-05-14T06:02:40;15.50;1.00
2611;DHT22;5612;51.134;17.058;2023-05-14T06:05:10;15.70;1.00
2611;DHT22;5612;51.134;17.058;2023-05-14T06:07:39;15.90;1.00
2611;DHT22;5612;51.134;17.058;2023-05-14T06:10:08;16.10;1.00
2611;DHT22;5612;51.134;17.058;2023-05-14T06:12:36;16.20;1.00
2611;DHT22;5612;51.134;17.058;2023-05-14T06:15:08;16.40;1.00
2611;DHT22;5612;51.134;17.058;2023-05-14T06:17:36;16.50;1.00
2611;DHT22;5612;51.134;17.058;2023-05-14T06:20:07;16.30;1.00
2611;DHT22;5612;51.134;17.058;2023-05-14T06:22:36;16.20;1.00
2611;DHT22;5612;51.134;17.058;2023-05-14T06:25:06;16.30;1.00
2611;DHT22;5612;51.134;17.058;2023-05-14T06:27:34;16.40;1.00
2611;DHT22;5612;51.134;17.058;2023-05-14T06:30:04;16.30;1.00
2611;DHT22;5612;51.134;17.058;2023-05-14T06:32:35;16.50;1.00
2611;DHT22;5612;51.134;17.058;2023-05-14T06:35:04;16.60;1.00
2611;DHT22;5612;51.134;17.058;2023-05-14T06:37:33;16.80;1.00
2611;DHT22;5612;51.134;17.058;2023-05-14T06:40:03;17.00;1.00
2611;DHT22;5612;51.134;17.058;2023-05-14T06:42:32;17.10;1.00
2611;DHT22;5612;51.134;17.058;2023-05-14T06:45:01;17.20;1.00
2611;DHT22;5612;51.134;17.058;2023-05-14T06:47:29;17.40;1.00
2611;DHT22;5612;51.134;17.058;2023-05-14T06:50:01;18.00;1.00
2611;DHT22;5612;51.134;17.058;2023-05-14T06:52:30;18.50;1.00
2611;DHT22;5612;51.134;17.058;2023-05-14T06:54:58;18.90;1.00
2611;DHT22;5612;51.134;17.058;2023-05-14T06:57:28;19.70;1.00
2611;DHT22;5612;51.134;17.058;2023-05-14T06:59:57;20.50;1.00
2611;DHT22;5612;51.134;17.058;2023-05-14T07:02:26;21.30;1.00
2611;DHT22;5612;51.134;17.058;2023-05-14T07:04:54;21.90;1.00
2611;DHT22;5612;51.134;17.058;2023-05-14T07:07:25;22.40;1.00
2611;DHT22;5612;51.134;17.058;2023-05-14T07:09:53;22.90;1.00
2611;DHT22;5612;51.134;17.058;2023-05-14T07:12:22;23.80;1.00
2611;DHT22;5612;51.134;17.058;2023-05-14T07:14:51;24.60;1.00
2611;DHT22;5612;51.134;17.058;2023-05-14T07:17:20;25.20;1.00
2611;DHT22;5612;51.134;17.058;2023-05-14T07:19:48;25.40;1.00
2611;DHT22;5612;51.134;17.058;2023-05-14T07:22:17;25.40;1.00
2611;DHT22;5612;51.134;17.058;2023-05-14T07:24:47;25.60;1.00
2611;DHT22;5612;51.134;17.058;2023-05-14T07:27:16;26.30;1.00
2611;DHT22;5612;51.134;17.058;2023-05-14T07:29:45;26.20;1.00
2611;DHT22;5612;51.134;17.058;2023-05-14T07:32:14;26.70;1.00
2611;DHT22;5612;51.134;17.058;2023-05-14T07:34:42;26.70;1.00
2611;DHT22;5612;51.134;17.058;2023-05-14T07:37:11;26.90;1.00
2611;DHT22;5612;51.134;17.058;2023-05-14T07:39:40;27.20;1.00
2611;DHT22;5612;51.134;17.058;2023-05-14T07:42:10;27.60;1.00
2611;DHT22;5612;51.134;17.058;2023-05-14T07:44:51;27.90;1.00
2611;DHT22;5612;51.134;17.058;2023-05-14T07:47:19;28.20;1.00
2611;DHT22;5612;51.134;17.058;2023-05-14T07:49:50;28.10;1.00
2611;DHT22;5612;51.134;17.058;2023-05-14T07:52:21;28.30;1.00
2611;DHT22;5612;51.134;17.058;2023-05-14T07:54:50;28.80;1.00
2611;DHT22;5612;51.134;17.058;2023-05-14T07:57:21;28.70;1.00
2611;DHT22;5612;51.134;17.058;2023-05-14T07:59:49;28.90;1.00
2611;DHT22;5612;51.134;17.058;2023-05-14T08:02:18;30.50;1.00
2611;DHT22;5612;51.134;17.058;2023-05-14T08:04:48;30.20;1.00
2611;DHT22;5612;51.134;17.058;2023-05-14T08:07:17;31.00;1.00
2611;DHT22;5612;51.134;17.058;2023-05-14T08:09:45;31.60;1.00
2611;DHT22;5612;51.134;17.058;2023-05-14T08:12:14;31.40;1.00
2611;DHT22;5612;51.134;17.058;2023-05-14T08:14:45;31.20;1.00
2611;DHT22;5612;51.134;17.058;2023-05-14T08:17:15;31.10;1.00
2611;DHT22;5612;51.134;17.058;2023-05-14T08:19:44;31.80;1.00
2611;DHT22;5612;51.134;17.058;2023-05-14T08:22:13;32.50;1.00
2611;DHT22;5612;51.134;17.058;2023-05-14T08:24:42;32.30;1.00
2611;DHT22;5612;51.134;17.058;2023-05-14T08:27:11;32.10;1.00
2611;DHT22;5612;51.134;17.058;2023-05-14T08:29:39;31.80;1.00
2611;DHT22;5612;51.134;17.058;2023-05-14T08:32:10;31.90;1.00
2611;DHT22;5612;51.134;17.058;2023-05-14T08:34:49;31.70;1.00
2611;DHT22;5612;51.134;17.058;2023-05-14T08:37:18;31.50;1.00
2611;DHT22;5612;51.134;17.058;2023-05-14T08:39:48;32.90;1.00
2611;DHT22;5612;51.134;17.058;2023-05-14T08:42:19;32.80;1.00
2611;DHT22;5612;51.134;17.058;2023-05-14T08:44:52;33.80;1.00
2611;DHT22;5612;51.134;17.058;2023-05-14T08:47:26;34.40;1.00
2611;DHT22;5612;51.134;17.058;2023-05-14T08:50:00;32.90;1.00
2611;DHT22;5612;51.134;17.058;2023-05-14T08:52:30;33.30;1.00
2611;DHT22;5612;51.134;17.058;2023-05-14T08:55:02;34.00;1.00
2611;DHT22;5612;51.134;17.058;2023-05-14T08:57:32;34.60;1.00
2611;DHT22;5612;51.134;17.058;2023-05-14T09:00:04;35.10;1.00
2611;DHT22;5612;51.134;17.058;2023-05-14T09:02:36;36.10;1.00
2611;DHT22;5612;51.134;17.058;2023-05-14T09:05:08;36.50;1.00
2611;DHT22;5612;51.134;17.058;2023-05-14T09:07:37;37.60;1.00
2611;DHT22;5612;51.134;17.058;2023-05-14T09:10:07;37.10;1.00
2611;DHT22;5612;51.134;17.058;2023-05-14T09:12:36;37.10;1.00
2611;DHT22;5612;51.134;17.058;2023-05-14T09:15:06;36.70;1.00
2611;DHT22;5612;51.134;17.058;2023-05-14T09:17:37;36.70;1.00
2611;DHT22;5612;51.134;17.058;2023-05-14T09:20:07;37.20;1.00
2611;DHT22;5612;51.134;17.058;2023-05-14T09:22:37;36.80;1.00
2611;DHT22;5612;51.134;17.058;2023-05-14T09:25:08;37.30;1.00
2611;DHT22;5612;51.134;17.058;2023-05-14T09:27:38;37.60;1.00
2611;DHT22;5612;51.134;17.058;2023-05-14T09:30:09;36.40;1.00
2611;DHT22;5612;51.134;17.058;2023-05-14T09:32:40;36.20;1.00
2611;DHT22;5612;51.134;17.058;2023-05-14T09:35:15;36.30;1.00
2611;DHT22;5612;51.134;17.058;2023-05-14T09:37:45;36.50;1.00
2611;DHT22;5612;51.134;17.058;2023-05-14T09:40:16;37.50;1.00
2611;DHT22;5612;51.134;17.058;2023-05-14T09:42:46;38.20;1.00
2611;DHT22;5612;51.134;17.058;2023-05-14T09:45:16;39.50;1.00
2611;DHT22;5612;51.134;17.058;2023-05-14T09:47:46;40.50;1.00
2611;DHT22;5612;51.134;17.058;2023-05-14T09:50:15;40.50;1.00
2611;DHT22;5612;51.134;17.058;2023-05-14T09:52:44;39.40;1.00
2611;DHT22;5612;51.134;17.058;2023-05-14T09:55:13;38.10;1.00
2611;DHT22;5612;51.134;17.058;2023-05-14T09:57:42;38.40;1.00
2611;DHT22;5612;51.134;17.058;2023-05-14T10:00:12;38.50;1.00
2611;DHT22;5612;51.134;17.058;2023-05-14T10:02:43;39.60;1.00
2611;DHT22;5612;51.134;17.058;2023-05-14T10:05:15;39.40;1.00
2611;DHT22;5612;51.134;17.058;2023-05-14T10:07:46;38.90;1.00
2611;DHT22;5612;51.134;17.058;2023-05-14T10:10:18;39.60;1.00
2611;DHT22;5612;51.134;17.058;2023-05-14T10:12:51;39.40;1.00
2611;DHT22;5612;51.134;17.058;2023-05-14T10:15:24;39.70;1.00
2611;DHT22;5612;51.134;17.058;2023-05-14T10:17:55;38.70;1.00
2611;DHT22;5612;51.134;17.058;2023-05-14T10:20:27;37.70;1.00
2611;DHT22;5612;51.134;17.058;2023-05-14T10:22:57;37.20;1.00
2611;DHT22;5612;51.134;17.058;2023-05-14T10:25:26;36.60;1.00
2611;DHT22;5612;51.134;17.058;2023-05-14T10:27:55;37.10;1.00
2611;DHT22;5612;51.134;17.058;2023-05-14T10:30:26;36.80;1.00
2611;DHT22;5612;51.134;17.058;2023-05-14T10:33:08;37.20;1.00
2611;DHT22;5612;51.134;17.058;2023-05-14T10:36:03;36.10;1.00
2611;DHT22;5612;51.134;17.058;2023-05-14T10:38:33;35.10;1.00
2611;DHT22;5612;51.134;17.058;2023-05-14T10:41:03;34.40;1.00
2611;DHT22;5612;51.134;17.058;2023-05-14T10:43:36;34.30;1.00
2611;DHT22;5612;51.134;17.058;2023-05-14T10:46:05;33.40;1.00
2611;DHT22;5612;51.134;17.058;2023-05-14T10:48:36;32.40;1.00
2611;DHT22;5612;51.134;17.058;2023-05-14T10:51:08;31.30;1.00
2611;DHT22;5612;51.134;17.058;2023-05-14T10:53:39;30.70;1.00
2611;DHT22;5612;51.134;17.058;2023-05-14T10:56:10;31.40;1.00
2611;DHT22;5612;51.134;17.058;2023-05-14T10:58:41;31.70;1.00
2611;DHT22;5612;51.134;17.058;2023-05-14T11:01:11;31.30;1.00
2611;DHT22;5612;51.134;17.058;2023-05-14T11:03:42;30.90;1.00
2611;DHT22;5612;51.134;17.058;2023-05-14T11:06:14;30.60;1.00
2611;DHT22;5612;51.134;17.058;2023-05-14T11:08:43;31.20;1.00
2611;DHT22;5612;51.134;17.058;2023-05-14T11:11:12;31.40;1.00
2611;DHT22;5612;51.134;17.058;2023-05-14T11:13:41;32.10;1.00
2611;DHT22;5612;51.134;17.058;2023-05-14T11:16:11;33.30;1.00
2611;DHT22;5612;51.134;17.058;2023-05-14T11:18:53;34.70;1.00
2611;DHT22;5612;51.134;17.058;2023-05-14T11:21:29;36.20;1.00
2611;DHT22;5612;51.134;17.058;2023-05-14T11:23:59;35.60;1.00
2611;DHT22;5612;51.134;17.058;2023-05-14T11:26:28;34.40;1.00
2611;DHT22;5612;51.134;17.058;2023-05-14T11:28:59;34.50;1.00
2611;DHT22;5612;51.134;17.058;2023-05-14T11:31:28;34.70;1.00
2611;DHT22;5612;51.134;17.058;2023-05-14T11:33:57;36.20;1.00
2611;DHT22;5612;51.134;17.058;2023-05-14T11:36:26;37.20;1.00
2611;DHT22;5612;51.134;17.058;2023-05-14T11:38:57;37.80;1.00
2611;DHT22;5612;51.134;17.058;2023-05-14T11:41:26;38.50;1.00
2611;DHT22;5612;51.134;17.058;2023-05-14T11:43:54;39.10;1.00
2611;DHT22;5612;51.134;17.058;2023-05-14T11:46:23;40.00;1.00
2611;DHT22;5612;51.134;17.058;2023-05-14T11:48:52;40.60;1.00
2611;DHT22;5612;51.134;17.058;2023-05-14T11:51:23;40.50;1.00
2611;DHT22;5612;51.134;17.058;2023-05-14T11:53:53;40.80;1.00
2611;DHT22;5612;51.134;17.058;2023-05-14T11:56:23;41.60;1.00
2611;DHT22;5612;51.134;17.058;2023-05-14T11:58:55;41.80;1.00
2611;DHT22;5612;51.134;17.058;2023-05-14T12:01:24;42.60;1.00
2611;DHT22;5612;51.134;17.058;2023-05-14T12:03:55;42.20;1.00
2611;DHT22;5612;51.134;17.058;2023-05-14T12:06:30;42.40;1.00
2611;DHT22;5612;51.134;17.058;2023-05-14T12:08:59;42.10;1.00
2611;DHT22;5612;51.134;17.058;2023-05-14T12:11:31;40.90;1.00
2611;DHT22;5612;51.134;17.058;2023-05-14T12:14:01;40.10;1.00
2611;DHT22;5612;51.134;17.058;2023-05-14T12:16:39;38.00;1.00
2611;DHT22;5612;51.134;17.058;2023-05-14T12:19:09;35.10;1.00
2611;DHT22;5612;51.134;17.058;2023-05-14T12:21:39;33.50;1.00
2611;DHT22;5612;51.134;17.058;2023-05-14T12:24:09;31.90;1.00
2611;DHT22;5612;51.134;17.058;2023-05-14T12:26:43;32.00;1.00
2611;DHT22;5612;51.134;17.058;2023-05-14T12:29:13;33.80;1.00
2611;DHT22;5612;51.134;17.058;2023-05-14T12:31:46;34.60;1.00
2611;DHT22;5612;51.134;17.058;2023-05-14T12:34:15;34.20;1.00
2611;DHT22;5612;51.134;17.058;2023-05-14T12:36:44;34.60;1.00
2611;DHT22;5612;51.134;17.058;2023-05-14T12:39:13;35.70;1.00
2611;DHT22;5612;51.134;17.058;2023-05-14T12:41:43;36.50;1.00
2611;DHT22;5612;51.134;17.058;2023-05-14T12:44:12;37.90;1.00
2611;DHT22;5612;51.134;17.058;2023-05-14T12:46:41;38.70;1.00
2611;DHT22;5612;51.134;17.058;2023-05-14T12:49:10;37.50;1.00
2611;DHT22;5612;51.134;17.058;2023-05-14T12:51:39;36.10;1.00
2611;DHT22;5612;51.134;17.058;2023-05-14T12:54:07;35.90;1.00
2611;DHT22;5612;51.134;17.058;2023-05-14T12:56:37;36.30;1.00
2611;DHT22;5612;51.134;17.058;2023-05-14T12:59:07;37.70;1.00
2611;DHT22;5612;51.134;17.058;2023-05-14T13:01:36;38.10;1.00
2611;DHT22;5612;51.134;17.058;2023-05-14T13:04:05;38.30;1.00
2611;DHT22;5612;51.134;17.058;2023-05-14T13:06:35;38.80;1.00
2611;DHT22;5612;51.134;17.058;2023-05-14T13:09:04;38.90;1.00
2611;DHT22;5612;51.134;17.058;2023-05-14T13:11:33;39.80;1.00
2611;DHT22;5612;51.134;17.058;2023-05-14T13:14:02;39.00;1.00
2611;DHT22;5612;51.134;17.058;2023-05-14T13:16:32;38.90;1.00
2611;DHT22;5612;51.134;17.058;2023-05-14T13:19:01;38.30;1.00
2611;DHT22;5612;51.134;17.058;2023-05-14T13:21:30;36.10;1.00
2611;DHT22;5612;51.134;17.058;2023-05-14T13:23:59;34.00;1.00
2611;DHT22;5612;51.134;17.058;2023-05-14T13:26:28;33.30;1.00
2611;DHT22;5612;51.134;17.058;2023-05-14T13:28:56;32.50;1.00
2611;DHT22;5612;51.134;17.058;2023-05-14T13:31:25;31.30;1.00
2611;DHT22;5612;51.134;17.058;2023-05-14T13:33:55;31.10;1.00
2611;DHT22;5612;51.134;17.058;2023-05-14T13:36:25;30.80;1.00
2611;DHT22;5612;51.134;17.058;2023-05-14T13:38:54;30.70;1.00
2611;DHT22;5612;51.134;17.058;2023-05-14T13:41:25;30.70;1.00
2611;DHT22;5612;51.134;17.058;2023-05-14T13:43:53;31.00;1.00
2611;DHT22;5612;51.134;17.058;2023-05-14T13:46:22;31.10;1.00
2611;DHT22;5612;51.134;17.058;2023-05-14T13:48:51;30.40;1.00
2611;DHT22;5612;51.134;17.058;2023-05-14T13:51:22;30.30;1.00
2611;DHT22;5612;51.134;17.058;2023-05-14T13:53:50;30.00;1.00
2611;DHT22;5612;51.134;17.058;2023-05-14T13:56:20;29.80;1.00
2611;DHT22;5612;51.134;17.058;2023-05-14T13:58:49;29.90;1.00
2611;DHT22;5612;51.134;17.058;2023-05-14T14:01:17;29.50;1.00
2611;DHT22;5612;51.134;17.058;2023-05-14T14:03:46;29.40;1.00
2611;DHT22;5612;51.134;17.058;2023-05-14T14:06:15;29.10;1.00
2611;DHT22;5612;51.134;17.058;2023-05-14T14:08:45;28.60;1.00
2611;DHT22;5612;51.134;17.058;2023-05-14T14:11:14;28.30;1.00
2611;DHT22;5612;51.134;17.058;2023-05-14T14:13:43;28.10;1.00
2611;DHT22;5612;51.134;17.058;2023-05-14T14:16:13;28.10;1.00
2611;DHT22;5612;51.134;17.058;2023-05-14T14:18:42;27.80;1.00
2611;DHT22;5612;51.134;17.058;2023-05-14T14:21:11;27.80;1.00
2611;DHT22;5612;51.134;17.058;2023-05-14T14:23:41;27.50;1.00
2611;DHT22;5612;51.134;17.058;2023-05-14T14:26:11;27.30;1.00
2611;DHT22;5612;51.134;17.058;2023-05-14T14:28:40;26.70;1.00
2611;DHT22;5612;51.134;17.058;2023-05-14T14:31:09;25.70;1.00
2611;DHT22;5612;51.134;17.058;2023-05-14T14:33:38;25.20;1.00
2611;DHT22;5612;51.134;17.058;2023-05-14T14:36:07;24.60;1.00
2611;DHT22;5612;51.134;17.058;2023-05-14T14:38:36;24.50;1.00
2611;DHT22;5612;51.134;17.058;2023-05-14T14:41:05;24.10;1.00
2611;DHT22;5612;51.134;17.058;2023-05-14T14:43:38;24.10;1.00
2611;DHT22;5612;51.134;17.058;2023-05-14T14:46:07;24.00;1.00
2611;DHT22;5612;51.134;17.058;2023-05-14T14:48:36;23.80;1.00
2611;DHT22;5612;51.134;17.058;2023-05-14T14:51:06;23.30;1.00
2611;DHT22;5612;51.134;17.058;2023-05-14T14:53:35;23.40;1.00
2611;DHT22;5612;51.134;17.058;2023-05-14T14:56:06;23.50;1.00
2611;DHT22;5612;51.134;17.058;2023-05-14T14:58:34;23.60;1.00
2611;DHT22;5612;51.134;17.058;2023-05-14T15:01:05;23.70;1.00
2611;DHT22;5612;51.134;17.058;2023-05-14T15:03:35;23.80;1.00
2611;DHT22;5612;51.134;17.058;2023-05-14T15:06:04;24.00;1.00
2611;DHT22;5612;51.134;17.058;2023-05-14T15:08:33;24.20;1.00
2611;DHT22;5612;51.134;17.058;2023-05-14T15:11:03;24.30;1.00
2611;DHT22;5612;51.134;17.058;2023-05-14T15:13:32;24.30;1.00
2611;DHT22;5612;51.134;17.058;2023-05-14T15:16:01;23.60;1.00
2611;DHT22;5612;51.134;17.058;2023-05-14T15:18:31;23.60;1.00
2611;DHT22;5612;51.134;17.058;2023-05-14T15:21:00;23.50;1.00
2611;DHT22;5612;51.134;17.058;2023-05-14T15:23:29;23.50;1.00
2611;DHT22;5612;51.134;17.058;2023-05-14T15:25:58;23.30;1.00
2611;DHT22;5612;51.134;17.058;2023-05-14T15:28:26;22.90;1.00
2611;DHT22;5612;51.134;17.058;2023-05-14T15:30:55;22.50;1.00
2611;DHT22;5612;51.134;17.058;2023-05-14T15:33:24;22.20;1.00
2611;DHT22;5612;51.134;17.058;2023-05-14T15:35:54;22.50;1.00
2611;DHT22;5612;51.134;17.058;2023-05-14T15:38:23;22.70;1.00
2611;DHT22;5612;51.134;17.058;2023-05-14T15:40:53;22.80;1.00
2611;DHT22;5612;51.134;17.058;2023-05-14T15:43:22;22.80;1.00
2611;DHT22;5612;51.134;17.058;2023-05-14T15:45:50;22.90;1.00
2611;DHT22;5612;51.134;17.058;2023-05-14T15:48:19;22.90;1.00
2611;DHT22;5612;51.134;17.058;2023-05-14T15:50:48;23.20;1.00
2611;DHT22;5612;51.134;17.058;2023-05-14T15:53:19;23.20;1.00
2611;DHT22;5612;51.134;17.058;2023-05-14T15:55:48;23.10;1.00
2611;DHT22;5612;51.134;17.058;2023-05-14T15:58:16;23.00;1.00
2611;DHT22;5612;51.134;17.058;2023-05-14T16:00:45;23.20;1.00
2611;DHT22;5612;51.134;17.058;2023-05-14T16:03:14;23.00;1.00
2611;DHT22;5612;51.134;17.058;2023-05-14T16:05:43;22.80;1.00
2611;DHT22;5612;51.134;17.058;2023-05-14T16:08:12;22.70;1.00
2611;DHT22;5612;51.134;17.058;2023-05-14T16:10:42;22.60;1.00
2611;DHT22;5612;51.134;17.058;2023-05-14T16:13:11;22.50;1.00